createdAt,value
2019-05-30T00:01:05.361Z,86.40
2019-05-30T00:03:40.198Z,86.50
2019-05-30T00:06:15.002Z,86.60
2019-05-30T00:08:49.700Z,86.80
2019-05-30T00:11:24.554Z,86.90
2019-05-30T00:14:00.661Z,86.90
2019-05-30T00:16:35.508Z,86.90
2019-05-30T00:19:09.565Z,87.00
2019-05-30T00:21:44.643Z,87.00
2019-05-30T00:24:19.751Z,87.20
2019-05-30T00:26:56.122Z,88.20
2019-05-30T00:29:31.129Z,87.30
2019-05-30T00:32:06.367Z,87.40
2019-05-30T00:34:41.274Z,87.30
2019-05-30T00:37:15.426Z,87.50
2019-05-30T00:39:50.451Z,87.40
2019-05-30T00:42:25.282Z,87.60
2019-05-30T00:44:59.991Z,87.50
2019-05-30T00:47:36.240Z,87.70
2019-05-30T00:50:11.324Z,87.80
2019-05-30T00:52:45.858Z,87.90
2019-05-30T00:55:21.151Z,88.70
2019-05-30T00:57:56.718Z,88.00
2019-05-30T01:00:42.641Z,88.20
2019-05-30T01:03:08.970Z,88.20
2019-05-30T01:05:44.485Z,88.20
2019-05-30T01:08:19.248Z,88.30
2019-05-30T01:10:54.032Z,88.10
2019-05-30T01:13:28.690Z,88.20
2019-05-30T01:16:05.376Z,88.20
2019-05-30T01:18:41.144Z,88.20
2019-05-30T01:21:15.691Z,88.30
2019-05-30T01:23:50.596Z,88.40
2019-05-30T01:26:25.320Z,88.30
2019-05-30T01:28:59.764Z,88.40
2019-05-30T01:31:34.450Z,88.50
2019-05-30T01:34:09.522Z,88.50
2019-05-30T01:36:44.275Z,88.50
2019-05-30T01:39:19.625Z,88.30
2019-05-30T01:41:54.278Z,88.30
2019-05-30T01:44:28.965Z,88.30
2019-05-30T01:47:04.189Z,88.20
2019-05-30T01:49:39.470Z,88.20
2019-05-30T01:52:14.924Z,88.20
2019-05-30T01:54:49.743Z,88.40
2019-05-30T01:57:24.825Z,88.30
2019-05-30T02:00:00.715Z,88.40
2019-05-30T02:02:35.581Z,88.30
2019-05-30T02:05:10.786Z,88.20
2019-05-30T02:07:45.614Z,88.30
2019-05-30T02:10:20.011Z,88.30
2019-05-30T02:12:55.162Z,88.40
2019-05-30T02:15:30.425Z,88.70
2019-05-30T02:18:06.059Z,88.60
2019-05-30T02:20:40.578Z,88.00
2019-05-30T02:23:16.659Z,88.00
2019-05-30T02:25:51.295Z,88.00
2019-05-30T02:28:26.367Z,88.20
2019-05-30T02:31:02.945Z,88.20
2019-05-30T02:33:40.916Z,88.30
2019-05-30T02:36:16.108Z,88.20
2019-05-30T02:38:51.088Z,87.40
2019-05-30T02:41:25.642Z,87.50
2019-05-30T02:44:01.221Z,87.00
2019-05-30T02:46:36.066Z,86.20
2019-05-30T02:49:13.560Z,86.20
2019-05-30T02:51:47.372Z,86.00
2019-05-30T02:54:27.071Z,85.30
2019-05-30T02:57:05.537Z,85.20
2019-05-30T02:59:41.521Z,84.80
2019-05-30T03:02:17.888Z,84.60
2019-05-30T03:04:52.990Z,83.70
2019-05-30T03:07:27.939Z,83.20
2019-05-30T03:10:07.084Z,83.00
2019-05-30T03:12:41.970Z,83.80
2019-05-30T03:15:17.142Z,83.70
2019-05-30T03:17:51.722Z,82.80
2019-05-30T03:20:26.301Z,82.60
2019-05-30T03:23:02.846Z,83.60
2019-05-30T03:25:36.897Z,83.80
2019-05-30T03:28:11.868Z,84.40
2019-05-30T03:30:46.713Z,82.50
2019-05-30T03:33:37.751Z,82.70
2019-05-30T03:35:57.409Z,82.40
2019-05-30T03:38:32.029Z,82.20
2019-05-30T03:41:09.116Z,81.10
2019-05-30T03:43:43.575Z,80.70
2019-05-30T03:46:21.751Z,79.30
2019-05-30T03:48:57.363Z,77.80
2019-05-30T03:51:31.840Z,77.10
2019-05-30T03:54:07.707Z,77.30
2019-05-30T03:56:47.020Z,77.30
2019-05-30T03:59:34.817Z,77.10
2019-05-30T04:02:23.317Z,77.60
2019-05-30T04:07:36.576Z,77.40
2019-05-30T04:10:11.450Z,77.10
2019-05-30T04:13:19.543Z,77.50
2019-05-30T04:15:54.133Z,78.30
2019-05-30T04:18:28.781Z,78.40
2019-05-30T04:21:03.838Z,78.60
2019-05-30T04:23:38.758Z,78.60
2019-05-30T04:26:13.702Z,78.30
2019-05-30T04:28:47.918Z,78.40
2019-05-30T04:31:22.417Z,78.70
2019-05-30T04:33:57.407Z,79.30
2019-05-30T04:36:32.295Z,79.50
2019-05-30T04:39:08.783Z,79.20
2019-05-30T04:41:43.682Z,79.50
2019-05-30T04:44:20.150Z,79.90
2019-05-30T04:46:54.002Z,80.00
2019-05-30T04:49:28.986Z,80.70
2019-05-30T04:52:03.552Z,80.70
2019-05-30T04:54:38.190Z,80.20
2019-05-30T04:57:12.769Z,80.30
2019-05-30T04:59:48.707Z,80.50
2019-05-30T05:02:23.759Z,80.70
2019-05-30T05:04:58.492Z,80.40
2019-05-30T05:07:32.789Z,80.40
2019-05-30T05:10:07.803Z,80.50
2019-05-30T05:12:42.265Z,80.60
2019-05-30T05:32:45.676Z,81.20
2019-05-30T05:35:20.902Z,83.50
2019-05-30T05:37:56.105Z,82.80
2019-05-30T05:40:30.853Z,82.10
2019-05-30T05:43:05.199Z,81.70
2019-05-30T05:45:40.368Z,81.70
2019-05-30T05:48:16.411Z,81.80
2019-05-30T05:50:50.892Z,81.90
2019-05-30T05:53:25.439Z,81.90
2019-05-30T05:56:00.197Z,82.00
2019-05-30T05:58:35.164Z,82.00
2019-05-30T06:01:30.156Z,81.60
2019-05-30T06:04:13.035Z,81.50
2019-05-30T06:06:40.959Z,81.30
2019-05-30T06:09:16.286Z,81.70
2019-05-30T06:11:50.937Z,81.90
2019-05-30T06:14:26.224Z,81.70
2019-05-30T06:17:01.503Z,81.80
2019-05-30T06:19:45.899Z,82.00
2019-05-30T06:22:12.367Z,82.00
2019-05-30T06:24:47.773Z,81.30
2019-05-30T06:27:23.905Z,81.20
2019-05-30T06:29:58.826Z,81.40
2019-05-30T06:32:33.266Z,81.60
2019-05-30T06:35:08.481Z,81.70
2019-05-30T06:37:43.092Z,81.30
2019-05-30T06:40:17.806Z,81.20
2019-05-30T06:42:52.475Z,80.90
2019-05-30T06:45:28.286Z,81.10
2019-05-30T06:48:02.972Z,80.80
2019-05-30T06:50:37.569Z,80.70
2019-05-30T06:53:12.476Z,80.70
2019-05-30T06:55:46.561Z,80.70
2019-05-30T06:58:38.259Z,80.90
2019-05-30T07:00:57.150Z,80.40
2019-05-30T07:03:32.647Z,80.10
2019-05-30T07:06:07.621Z,80.30
2019-05-30T07:08:42.550Z,80.50
2019-05-30T07:11:17.244Z,80.30
2019-05-30T07:13:51.843Z,80.00
2019-05-30T07:16:27.334Z,79.80
2019-05-30T07:19:02.213Z,80.20
2019-05-30T07:21:37.213Z,80.00
2019-05-30T07:24:29.833Z,80.10
2019-05-30T07:27:04.625Z,80.20
2019-05-30T07:29:39.212Z,80.00
2019-05-30T07:32:15.889Z,80.00
2019-05-30T07:35:05.492Z,80.50
2019-05-30T07:37:28.211Z,80.30
2019-05-30T07:40:03.413Z,80.20
2019-05-30T07:42:38.226Z,80.30
2019-05-30T07:45:14.559Z,80.00
2019-05-30T07:47:48.945Z,79.80
2019-05-30T07:50:23.295Z,80.00
2019-05-30T07:52:58.177Z,79.70
2019-05-30T07:55:33.131Z,80.10
2019-05-30T07:58:08.085Z,79.80
2019-05-30T08:00:42.586Z,79.50
2019-05-30T08:03:18.150Z,79.40
2019-05-30T08:05:53.586Z,79.30
2019-05-30T08:08:31.826Z,79.20
2019-05-30T08:11:09.823Z,78.90
2019-05-30T08:13:42.365Z,79.00
2019-05-30T08:16:18.532Z,78.80
2019-05-30T08:19:10.925Z,78.40
2019-05-30T08:21:45.796Z,78.10
2019-05-30T08:24:20.256Z,78.10
2019-05-30T08:26:54.722Z,78.30
2019-05-30T08:29:30.608Z,77.50
2019-05-30T08:32:09.222Z,77.10
2019-05-30T08:34:45.577Z,76.60
2019-05-30T08:37:21.658Z,76.90
2019-05-30T08:39:57.240Z,76.90
2019-05-30T08:42:31.580Z,76.50
2019-05-30T08:45:09.742Z,75.80
2019-05-30T08:47:43.203Z,75.90
2019-05-30T08:50:36.458Z,76.40
2019-05-30T08:53:16.158Z,75.60
2019-05-30T08:55:52.928Z,75.40
2019-05-30T08:58:38.658Z,75.40
2019-05-30T09:01:12.589Z,74.70
2019-05-30T09:03:51.621Z,74.80
2019-05-30T09:06:28.985Z,75.20
2019-05-30T09:09:03.510Z,75.20
2019-05-30T09:11:39.332Z,74.90
2019-05-30T09:14:13.662Z,75.00
2019-05-30T09:16:49.209Z,74.90
2019-05-30T09:19:28.163Z,75.10
2019-05-30T09:22:05.907Z,75.20
2019-05-30T09:24:44.462Z,75.30
2019-05-30T09:27:23.868Z,74.80
2019-05-30T09:30:00.877Z,74.70
2019-05-30T09:32:36.268Z,74.20
2019-05-30T09:35:11.222Z,74.40
2019-05-30T09:37:49.642Z,74.50
2019-05-30T09:40:25.052Z,74.50
2019-05-30T09:42:59.699Z,74.80
2019-05-30T09:45:34.068Z,74.80
2019-05-30T09:48:09.728Z,74.10
2019-05-30T09:50:51.039Z,73.50
2019-05-30T09:53:26.142Z,72.70
2019-05-30T09:56:01.632Z,72.40
2019-05-30T09:58:46.050Z,72.00
2019-05-30T10:01:21.365Z,71.80
2019-05-30T10:03:56.014Z,72.00
2019-05-30T10:06:30.783Z,72.90
2019-05-30T10:09:08.282Z,71.80
2019-05-30T10:11:45.386Z,71.90
2019-05-30T10:14:23.625Z,72.10
2019-05-30T10:16:58.600Z,71.80
2019-05-30T10:19:33.540Z,71.40
2019-05-30T10:22:14.386Z,71.50
2019-05-30T10:24:51.122Z,71.00
2019-05-30T10:27:28.971Z,70.90
2019-05-30T10:30:03.487Z,70.90
2019-05-30T10:32:41.028Z,71.70
2019-05-30T10:35:15.712Z,70.90
2019-05-30T10:37:53.201Z,71.00
2019-05-30T10:40:27.415Z,71.00
2019-05-30T10:43:02.513Z,71.30
2019-05-30T10:45:39.573Z,71.30
2019-05-30T10:48:14.501Z,71.30
2019-05-30T10:50:50.428Z,71.20
2019-05-30T10:53:26.462Z,71.60
2019-05-30T10:56:01.251Z,71.80
2019-05-30T10:58:35.982Z,72.00
2019-05-30T11:01:12.618Z,72.10
2019-05-30T11:03:48.643Z,72.30
2019-05-30T11:07:01.611Z,72.30
2019-05-30T11:09:22.955Z,72.50
2019-05-30T11:12:02.969Z,72.30
2019-05-30T11:14:37.754Z,72.40
2019-05-30T11:17:16.436Z,72.30
2019-05-30T11:19:54.325Z,72.40
2019-05-30T11:22:28.893Z,72.40
2019-05-30T11:25:03.568Z,72.30
2019-05-30T11:27:38.560Z,72.30
2019-05-30T11:30:13.368Z,72.50
2019-05-30T11:32:48.930Z,72.70
2019-05-30T11:35:25.142Z,72.70
2019-05-30T11:37:59.771Z,73.10
2019-05-30T11:40:34.039Z,72.90
2019-05-30T11:43:08.266Z,72.80
2019-05-30T11:45:43.223Z,72.90
2019-05-30T11:48:17.681Z,73.20
2019-05-30T11:50:53.619Z,73.50
2019-05-30T11:53:28.747Z,73.50
2019-05-30T11:56:03.484Z,73.60
2019-05-30T11:58:38.105Z,73.80
2019-05-30T12:01:12.666Z,73.80
2019-05-30T12:03:50.614Z,73.70
2019-05-30T12:06:25.035Z,73.80
2019-05-30T12:08:59.391Z,73.80
2019-05-30T12:11:33.889Z,73.80
2019-05-30T12:14:08.348Z,73.90
2019-05-30T12:16:42.769Z,74.10
2019-05-30T12:19:17.291Z,74.20
2019-05-30T12:21:52.051Z,74.30
2019-05-30T12:24:27.053Z,74.40
2019-05-30T12:27:02.292Z,74.70
2019-05-30T12:29:36.981Z,74.80
2019-05-30T12:32:11.683Z,74.80
2019-05-30T12:34:46.707Z,75.00
2019-05-30T12:37:23.553Z,75.20
2019-05-30T12:39:58.574Z,75.20
2019-05-30T12:42:33.267Z,75.20
2019-05-30T12:45:08.181Z,75.40
2019-05-30T12:47:42.774Z,75.50
2019-05-30T12:50:17.604Z,75.70
2019-05-30T12:52:53.341Z,76.70
2019-05-30T12:55:28.068Z,75.80
2019-05-30T12:58:03.063Z,76.00
2019-05-30T13:00:38.017Z,75.50
2019-05-30T13:03:12.443Z,76.30
2019-05-30T13:05:47.196Z,76.40
2019-05-30T13:08:22.254Z,76.50
2019-05-30T13:10:57.364Z,76.60
2019-05-30T13:13:31.708Z,76.60
2019-05-30T13:16:08.744Z,76.80
2019-05-30T13:18:42.516Z,77.00
2019-05-30T13:21:16.808Z,77.00
2019-05-30T13:23:51.162Z,78.00
2019-05-30T13:26:26.482Z,77.20
2019-05-30T13:29:02.184Z,77.20
2019-05-30T13:31:37.018Z,77.50
2019-05-30T13:34:11.671Z,77.40
2019-05-30T13:36:46.666Z,77.40
2019-05-30T13:39:21.526Z,77.50
2019-05-30T13:41:57.744Z,77.60
2019-05-30T13:44:32.213Z,77.60
2019-05-30T13:47:06.817Z,77.80
2019-05-30T13:49:41.602Z,77.80
2019-05-30T13:52:16.540Z,77.90
2019-05-30T13:54:51.255Z,78.10
2019-05-30T13:57:26.356Z,78.10
2019-05-30T14:00:01.877Z,78.20
2019-05-30T14:02:36.713Z,78.20
2019-05-30T14:05:11.826Z,78.30
2019-05-30T14:07:46.417Z,78.40
2019-05-30T14:10:21.099Z,78.50
2019-05-30T14:12:55.395Z,78.70
2019-05-30T14:15:31.488Z,78.60
2019-05-30T14:18:09.201Z,78.70
2019-05-30T14:20:43.995Z,78.80
2019-05-30T14:23:18.876Z,78.90
2019-05-30T14:25:53.887Z,79.00
2019-05-30T14:28:28.449Z,79.50
2019-05-30T14:31:03.582Z,79.10
2019-05-30T14:33:38.896Z,79.30
2019-05-30T14:36:14.771Z,79.30
2019-05-30T14:38:58.402Z,79.40
2019-05-30T14:41:25.788Z,79.40
2019-05-30T14:44:01.232Z,78.80
2019-05-30T14:46:35.763Z,79.60
2019-05-30T14:49:12.667Z,79.60
2019-05-30T14:51:47.525Z,79.60
2019-05-30T14:54:21.757Z,79.70
2019-05-30T14:56:56.868Z,79.20
2019-05-30T14:59:31.649Z,79.70
2019-05-30T15:02:07.121Z,79.70
2019-05-30T15:04:41.896Z,79.70
2019-05-30T15:07:16.585Z,79.70
2019-05-30T15:09:51.286Z,79.60
2019-05-30T15:12:26.342Z,80.40
2019-05-30T15:15:02.089Z,79.60
2019-05-30T15:17:36.768Z,79.70
2019-05-30T15:20:13.783Z,79.60
2019-05-30T15:22:48.853Z,79.80
2019-05-30T15:25:23.549Z,79.70
2019-05-30T15:27:58.427Z,79.80
2019-05-30T15:30:52.171Z,79.90
2019-05-30T15:33:26.661Z,80.10
2019-05-30T15:36:03.273Z,80.00
2019-05-30T15:38:38.025Z,80.10
2019-05-30T15:41:13.154Z,80.10
2019-05-30T15:43:51.138Z,80.20
2019-05-30T15:46:25.964Z,80.10
2019-05-30T15:49:00.525Z,80.30
2019-05-30T15:51:35.928Z,80.20
2019-05-30T15:54:10.801Z,80.30
2019-05-30T15:56:45.340Z,80.20
2019-05-30T15:59:20.606Z,80.20
2019-05-30T16:01:55.105Z,80.40
2019-05-30T16:04:29.622Z,80.40
2019-05-30T16:07:04.853Z,80.50
2019-05-30T16:09:47.199Z,80.50
2019-05-30T16:12:15.501Z,80.50
2019-05-30T16:14:50.231Z,80.60
2019-05-30T16:17:25.410Z,80.60
2019-05-30T16:19:59.861Z,80.60
2019-05-30T16:22:34.831Z,80.70
2019-05-30T16:25:09.594Z,80.80
2019-05-30T16:27:44.300Z,80.90
2019-05-30T16:30:23.809Z,80.90
2019-05-30T16:32:55.742Z,81.00
2019-05-30T16:35:30.096Z,81.10
2019-05-30T16:38:05.829Z,81.10
2019-05-30T16:40:40.154Z,81.10
2019-05-30T16:43:14.752Z,81.10
2019-05-30T16:45:49.535Z,81.10
2019-05-30T16:48:24.174Z,81.20
2019-05-30T16:50:59.059Z,81.10
2019-05-30T16:53:33.447Z,81.10
2019-05-30T16:56:07.955Z,81.20
2019-05-30T16:58:43.041Z,81.30
2019-05-30T17:01:17.827Z,81.40
2019-05-30T17:03:52.530Z,81.40
2019-05-30T17:06:27.262Z,81.30
2019-05-30T17:09:10.509Z,81.50
2019-05-30T17:11:45.161Z,81.40
2019-05-30T17:14:19.716Z,81.30
2019-05-30T17:16:54.619Z,81.40
2019-05-30T17:19:29.329Z,81.50
2019-05-30T17:22:04.134Z,81.50
2019-05-30T17:24:39.716Z,81.70
2019-05-30T17:27:14.217Z,81.70
2019-05-30T17:29:49.117Z,81.70
2019-05-30T17:32:23.888Z,81.60
2019-05-30T17:35:17.940Z,81.70
2019-05-30T17:37:52.662Z,81.60
2019-05-30T17:40:43.387Z,81.60
2019-05-30T17:43:03.398Z,81.60
2019-05-30T17:45:38.217Z,81.70
2019-05-30T17:48:16.555Z,81.90
2019-05-30T17:50:48.649Z,82.00
2019-05-30T17:53:23.962Z,82.10
2019-05-30T17:55:59.426Z,82.10
2019-05-30T17:58:34.210Z,82.40
2019-05-30T18:01:09.340Z,82.40
2019-05-30T18:03:44.186Z,82.60
2019-05-30T18:06:18.852Z,82.60
2019-05-30T18:08:53.425Z,82.50
2019-05-30T18:11:28.812Z,82.40
2019-05-30T18:14:03.541Z,82.30
2019-05-30T18:16:38.420Z,82.10
2019-05-30T18:19:12.983Z,82.00
2019-05-30T18:21:47.869Z,82.10
2019-05-30T18:24:23.376Z,82.50
2019-05-30T18:26:57.932Z,82.60
2019-05-30T18:29:32.499Z,82.60
2019-05-30T18:32:06.750Z,83.50
2019-05-30T18:34:41.496Z,82.70
2019-05-30T18:37:16.249Z,82.70
2019-05-30T18:39:50.737Z,82.80
2019-05-30T18:42:25.420Z,82.80
2019-05-30T18:45:01.342Z,82.90
2019-05-30T18:47:35.985Z,82.80
2019-05-30T18:50:10.241Z,82.70
2019-05-30T18:52:44.613Z,82.80
2019-05-30T18:55:19.387Z,82.70
2019-05-30T18:57:53.880Z,82.70
2019-05-30T19:00:29.133Z,82.70
2019-05-30T19:03:03.716Z,82.60
2019-05-30T19:05:38.491Z,82.60
2019-05-30T19:08:13.109Z,82.60
2019-05-30T19:10:47.596Z,82.60
2019-05-30T19:13:22.436Z,82.80
2019-05-30T19:15:57.133Z,82.70
2019-05-30T19:18:31.700Z,82.70
2019-05-30T19:21:06.311Z,82.60
2019-05-30T19:23:41.364Z,82.50
2019-05-30T19:26:16.177Z,82.90
2019-05-30T19:28:50.544Z,83.00
2019-05-30T19:31:26.385Z,82.90
2019-05-30T19:34:00.625Z,83.10
2019-05-30T19:36:35.318Z,83.20
2019-05-30T19:39:10.084Z,83.20
2019-05-30T19:41:56.291Z,83.30
2019-05-30T19:44:20.417Z,83.40
2019-05-30T19:46:54.612Z,83.30
2019-05-30T19:49:30.318Z,83.50
2019-05-30T19:52:05.852Z,84.30
2019-05-30T19:54:40.583Z,83.50
2019-05-30T19:57:15.446Z,83.50
2019-05-30T19:59:49.871Z,83.50
2019-05-30T20:02:24.384Z,83.50
2019-05-30T20:04:59.156Z,83.50
2019-05-30T20:07:34.617Z,83.50
2019-05-30T20:10:09.332Z,83.50
2019-05-30T20:12:43.677Z,83.70
2019-05-30T20:15:19.180Z,83.80
2019-05-30T20:17:53.627Z,83.80
2019-05-30T20:20:28.439Z,83.90
2019-05-30T20:23:02.937Z,84.00
2019-05-30T20:25:40.778Z,84.10
2019-05-30T20:28:13.083Z,84.10
2019-05-30T20:30:47.964Z,84.10
2019-05-30T20:33:22.333Z,84.90
2019-05-30T20:35:56.773Z,84.00
2019-05-30T20:38:31.442Z,84.10
2019-05-30T20:41:06.312Z,84.00
2019-05-30T20:43:41.075Z,84.10
2019-05-30T20:46:23.318Z,84.20
2019-05-30T20:48:51.834Z,84.40
2019-05-30T20:51:26.440Z,84.30
2019-05-30T20:54:01.380Z,84.30
2019-05-30T20:56:37.294Z,84.20
2019-05-30T20:59:12.043Z,84.30
2019-05-30T21:01:47.029Z,84.30
2019-05-30T21:04:21.760Z,84.40
2019-05-30T21:06:56.359Z,84.30
2019-05-30T21:09:31.527Z,84.30
2019-05-30T21:12:06.180Z,84.40
2019-05-30T21:14:41.495Z,84.50
2019-05-30T21:17:16.114Z,84.60
2019-05-30T21:19:50.663Z,84.60
2019-05-30T21:22:25.087Z,84.70
2019-05-30T21:24:59.452Z,84.90
2019-05-30T21:27:52.017Z,84.80
2019-05-30T21:30:26.621Z,84.80
2019-05-30T21:33:01.114Z,84.80
2019-05-30T21:35:35.827Z,84.80
2019-05-30T21:38:10.531Z,85.00
2019-05-30T21:40:46.439Z,85.00
2019-05-30T21:43:21.430Z,85.20
2019-05-30T21:45:56.341Z,85.20
2019-05-30T21:48:31.099Z,85.30
2019-05-30T21:51:06.000Z,85.20
2019-05-30T21:53:41.463Z,85.20
2019-05-30T21:56:16.113Z,85.30
2019-05-30T21:58:50.799Z,85.40
2019-05-30T22:01:37.397Z,85.30
2019-05-30T22:04:12.022Z,85.40
2019-05-30T22:06:46.813Z,85.30
2019-05-30T22:09:21.591Z,85.30
2019-05-30T22:11:56.215Z,85.20
2019-05-30T22:14:31.064Z,85.20
2019-05-30T22:17:05.598Z,85.20
2019-05-30T22:19:41.631Z,85.30
2019-05-30T22:22:16.682Z,85.30
2019-05-30T22:24:52.317Z,85.50
2019-05-30T22:27:27.242Z,85.40
2019-05-30T22:30:02.064Z,85.50
2019-05-30T22:32:36.309Z,85.50
2019-05-30T22:35:11.186Z,85.60
2019-05-30T22:37:46.809Z,85.30
2019-05-30T22:40:21.650Z,85.30
2019-05-30T22:42:56.452Z,85.20
2019-05-30T22:45:30.841Z,85.20
2019-05-30T22:48:23.353Z,85.10
2019-05-30T22:50:58.097Z,85.10
2019-05-30T22:53:32.679Z,85.30
2019-05-30T22:56:07.262Z,85.40
2019-05-30T22:58:41.747Z,85.40
2019-05-30T23:01:16.079Z,85.60
2019-05-30T23:03:52.223Z,86.50
2019-05-30T23:06:27.287Z,85.80
2019-05-30T23:09:02.021Z,85.80
2019-05-30T23:11:36.252Z,85.90
2019-05-30T23:14:10.882Z,86.20
2019-05-30T23:16:46.163Z,87.10
2019-05-30T23:19:20.671Z,86.30
2019-05-30T23:21:55.652Z,86.40
2019-05-30T23:24:29.912Z,86.30
2019-05-30T23:27:08.004Z,86.30
2019-05-30T23:29:41.393Z,86.50
2019-05-30T23:32:16.171Z,86.40
2019-05-30T23:34:50.855Z,86.30
2019-05-30T23:37:25.472Z,86.10
2019-05-30T23:40:00.237Z,86.20
2019-05-30T23:42:38.974Z,85.90
2019-05-30T23:45:13.391Z,85.60
2019-05-30T23:47:51.298Z,85.50
2019-05-30T23:50:25.982Z,85.30
2019-05-30T23:53:00.746Z,85.80
2019-05-30T23:55:35.247Z,84.90
2019-05-30T23:58:09.727Z,84.70
